Terminal Aerodrome Forecast
Issued by NWS

Home | Current Version | Previous Version | Text Only | Print | Product List | Glossary On
Versions: 1 2 3 4 5 6 7 8 9 10 11 12 13 14 15 16 17 18 19 20 21
000
FTUS46 KLOX 250108 AAA
TAFSBA
TAF AMD
KSBA 250108Z 2501/2524 26010KT P6SM SCT020 OVC035
     FM250300 VRB03KT P6SM SCT020 BKN035
      TEMPO 2504/2507 SCT020 SCT035
     FM251200 VRB03KT P6SM BKN020 OVC035
     FM251400 VRB03KT 6SM -DZ BR BKN012 OVC025
     FM251700 17005KT P6SM BKN017 OVC035
     FM252000 25009KT P6SM SCT017 BKN035
     FM252200 26012KT P6SM FEW017 SCT035=

USA.gov is the U.S. government's official web portal to all federal, state and local government web resources and services.